Time;durP1;ratioP1;P1;durP2;ratioP2;P2;SDS_P1;SDS_P2;PMS_P1;PMS_P2;Temp;Humidity;BMP_temperature;BMP_pressure;BME280_temperature;BME280_humidity;BME280_pressure;Samples;Min_cycle;Max_cycle;Signal;HPM_P1;HPM_P2
2021/03/24 00:00:48;;;;;;;34.40;18.20;;;;;;;7.36;59.06;100610.22;5082047;28;20047;-73
2021/03/24 00:03:15;;;;;;;35.03;18.38;;;;;;;7.43;58.74;100613.38;5082741;28;20048;-75
2021/03/24 00:05:45;;;;;;;28.13;15.55;;;;;;;7.41;58.83;100607.34;5082526;28;20052;-73
2021/03/24 00:08:12;;;;;;;27.58;17.52;;;;;;;7.34;58.95;100614.69;5082404;28;20047;-73
2021/03/24 00:10:39;;;;;;;23.80;14.82;;;;;;;7.23;59.31;100606.56;5084237;28;20128;-73
2021/03/24 00:13:07;;;;;;;25.85;14.85;;;;;;;7.22;59.38;100612.72;5082313;28;20048;-73
2021/03/24 00:15:34;;;;;;;19.73;11.23;;;;;;;7.26;59.23;100614.28;5065477;28;20117;-73
2021/03/24 00:18:01;;;;;;;20.13;12.10;;;;;;;7.28;59.01;100613.25;5083825;28;20614;-74
2021/03/24 00:20:29;;;;;;;16.95;9.80;;;;;;;7.31;59.00;100616.66;5080222;28;20048;-74
2021/03/24 00:22:57;;;;;;;15.10;10.63;;;;;;;7.37;58.70;100608.47;5084123;28;20048;-75
2021/03/24 00:25:23;;;;;;;24.08;12.55;;;;;;;7.35;58.80;100616.41;5083676;28;20052;-74
2021/03/24 00:27:51;;;;;;;12.90;10.20;;;;;;;7.32;58.88;100621.81;5081796;28;20044;-72
2021/03/24 00:30:21;;;;;;;17.05;9.60;;;;;;;7.38;58.82;100625.91;5083336;28;20121;-74
2021/03/24 00:32:48;;;;;;;14.05;11.05;;;;;;;7.36;58.85;100617.25;5082879;28;20056;-73
2021/03/24 00:35:14;;;;;;;16.30;10.98;;;;;;;7.36;58.76;100625.97;5082573;28;20048;-72
2021/03/24 00:37:41;;;;;;;15.70;10.15;;;;;;;7.31;58.96;100614.88;5083716;28;20631;-74
2021/03/24 00:40:10;;;;;;;17.48;13.30;;;;;;;7.27;59.17;100618.59;5082864;28;20047;-73
2021/03/24 00:42:37;;;;;;;21.67;10.80;;;;;;;7.23;59.25;100627.56;5083355;28;20101;-73
2021/03/24 00:45:04;;;;;;;15.30;9.35;;;;;;;7.28;58.98;100625.56;5083234;28;20048;-73
2021/03/24 00:47:31;;;;;;;17.10;11.20;;;;;;;7.26;59.15;100616.91;5082163;28;20518;-73
2021/03/24 00:49:57;;;;;;;24.40;10.10;;;;;;;7.26;59.11;100623.00;5081728;28;20095;-73
2021/03/24 00:52:23;;;;;;;16.70;10.35;;;;;;;7.33;58.90;100618.28;5083741;28;20430;-73
2021/03/24 00:54:49;;;;;;;22.10;11.77;;;;;;;7.28;59.13;100621.13;5082292;28;20059;-71
2021/03/24 00:57:16;;;;;;;17.17;11.23;;;;;;;7.28;59.13;100623.75;5082723;28;20048;-74
2021/03/24 00:59:42;;;;;;;17.02;10.55;;;;;;;7.32;59.04;100621.81;5083580;28;20074;-74
2021/03/24 01:02:08;;;;;;;23.60;12.57;;;;;;;7.35;58.93;100623.47;5082409;28;20105;-73
2021/03/24 01:04:35;;;;;;;18.65;11.07;;;;;;;7.37;58.86;100627.69;5082934;28;20047;-74
2021/03/24 01:07:02;;;;;;;20.50;11.70;;;;;;;7.36;58.87;100633.88;5083008;28;20385;-74
2021/03/24 01:09:28;;;;;;;21.48;10.05;;;;;;;7.38;58.88;100626.78;5083200;28;20048;-73
2021/03/24 01:11:54;;;;;;;16.50;11.13;;;;;;;7.43;58.74;100629.13;5083759;28;20043;-73
2021/03/24 01:14:20;;;;;;;15.57;11.13;;;;;;;7.39;58.97;100638.13;5083808;28;20055;-72
2021/03/24 01:16:46;;;;;;;17.48;11.68;;;;;;;7.33;59.25;100633.16;5082918;28;20410;-74
2021/03/24 01:19:15;;;;;;;21.10;11.18;;;;;;;7.39;58.96;100638.97;5083035;28;20052;-74
2021/03/24 01:21:42;;;;;;;19.90;10.98;;;;;;;7.41;58.97;100634.47;5081849;28;20044;-73
2021/03/24 01:24:09;;;;;;;17.52;11.55;;;;;;;7.33;59.25;100631.41;5081810;28;20048;-72
2021/03/24 01:26:35;;;;;;;17.75;10.27;;;;;;;7.38;59.03;100628.53;5083770;28;20048;-76
2021/03/24 01:29:01;;;;;;;16.77;11.40;;;;;;;7.35;59.28;100637.44;5082823;28;20048;-74
2021/03/24 01:31:29;;;;;;;14.77;9.82;;;;;;;7.33;59.44;100639.31;5082164;28;20132;-73
2021/03/24 01:33:56;;;;;;;17.92;11.88;;;;;;;7.37;59.24;100630.31;5083960;28;20051;-75
2021/03/24 01:36:22;;;;;;;18.65;12.57;;;;;;;7.35;59.34;100628.72;5084686;28;20505;-73
2021/03/24 01:38:51;;;;;;;18.27;11.88;;;;;;;7.30;59.62;100638.63;5085678;28;20499;-73
2021/03/24 01:41:18;;;;;;;20.88;12.18;;;;;;;7.31;59.55;100628.03;5088020;28;20059;-73
2021/03/24 01:43:45;;;;;;;21.80;12.73;;;;;;;7.28;59.74;100630.81;5087647;28;20048;-74
2021/03/24 01:46:35;;;;;;;19.30;11.25;;;;;;;7.26;59.96;100638.75;5085490;28;20116;-73
2021/03/24 01:49:04;;;;;;;21.65;12.10;;;;;;;7.24;59.89;100635.38;5087279;28;20151;-73
2021/03/24 01:51:33;;;;;;;18.58;12.55;;;;;;;7.22;60.00;100636.38;5084244;28;20040;-73
2021/03/24 01:54:01;;;;;;;20.20;12.15;;;;;;;7.26;59.98;100637.94;5086721;28;20044;-73
2021/03/24 01:56:29;;;;;;;22.30;11.77;;;;;;;7.25;60.06;100636.22;5087556;28;20368;-72
2021/03/24 01:58:57;;;;;;;20.00;13.05;;;;;;;7.26;59.85;100636.13;5086128;28;20048;-73
2021/03/24 02:01:25;;;;;;;19.45;13.20;;;;;;;7.22;60.12;100631.97;5086736;28;20052;-75
2021/03/24 02:03:51;;;;;;;21.13;12.77;;;;;;;7.24;60.02;100643.25;5086874;28;20040;-74
2021/03/24 02:06:24;;;;;;;18.33;10.88;;;;;;;7.32;59.93;100639.38;5085565;28;20048;-75
2021/03/24 02:09:00;;;;;;;20.02;12.30;;;;;;;7.30;59.93;100642.09;5086324;28;20051;-72
2021/03/24 02:11:34;;;;;;;23.00;13.60;;;;;;;7.26;60.05;100644.03;5087250;28;20054;-73
2021/03/24 02:14:08;;;;;;;20.38;11.63;;;;;;;7.26;60.02;100643.19;5085464;28;20654;-73
2021/03/24 02:16:39;;;;;;;20.80;13.52;;;;;;;7.31;60.12;100645.56;5086705;28;20420;-74
2021/03/24 02:19:18;;;;;;;21.83;12.93;;;;;;;7.30;59.90;100647.34;5086503;28;20130;-74
2021/03/24 02:21:45;;;;;;;22.08;12.68;;;;;;;7.26;60.02;100643.19;5083463;28;20144;-73
2021/03/24 02:24:28;;;;;;;25.08;14.20;;;;;;;7.34;59.87;100643.59;5086199;28;20160;-73
2021/03/24 02:27:04;;;;;;;24.35;12.40;;;;;;;7.37;59.73;100638.19;5086174;28;20578;-73
2021/03/24 02:29:33;;;;;;;25.45;12.90;;;;;;;7.31;59.92;100650.81;5086382;28;20105;-72
2021/03/24 02:32:01;;;;;;;16.83;10.75;;;;;;;7.34;59.86;100654.13;5086255;28;20389;-73
2021/03/24 02:34:30;;;;;;;19.63;11.85;;;;;;;7.32;59.83;100645.47;5085931;28;20048;-73
2021/03/24 02:36:58;;;;;;;23.45;11.38;;;;;;;7.34;59.75;100646.22;5086087;28;20584;-73
2021/03/24 02:39:27;;;;;;;16.15;12.48;;;;;;;7.32;59.94;100648.09;5086518;28;20052;-75
2021/03/24 02:41:56;;;;;;;19.67;11.80;;;;;;;7.36;59.82;100654.03;5085924;28;20085;-73
2021/03/24 02:44:24;;;;;;;21.45;12.02;;;;;;;7.35;59.88;100650.56;5086226;28;20040;-73
2021/03/24 02:46:53;;;;;;;24.17;12.68;;;;;;;7.32;59.98;100655.97;5085503;28;20055;-73
2021/03/24 02:49:21;;;;;;;23.92;13.23;;;;;;;7.32;59.90;100652.50;5084333;28;20048;-73
2021/03/24 02:51:48;;;;;;;17.23;11.65;;;;;;;7.30;59.92;100652.59;5084170;28;20368;-72
2021/03/24 02:54:17;;;;;;;19.60;11.18;;;;;;;7.36;59.84;100648.78;5086824;28;20043;-73
2021/03/24 02:56:44;;;;;;;22.70;12.82;;;;;;;7.37;59.67;100655.75;5084923;28;20055;-75
2021/03/24 02:59:11;;;;;;;19.10;10.75;;;;;;;7.35;59.72;100650.56;5085716;28;20044;-73
2021/03/24 03:01:44;;;;;;;28.30;12.82;;;;;;;7.36;59.98;100659.28;5086514;28;20165;-74
2021/03/24 03:04:16;;;;;;;25.40;14.35;;;;;;;7.27;60.26;100655.38;5084961;28;20097;-72
2021/03/24 03:06:44;;;;;;;23.38;12.05;;;;;;;7.28;60.09;100654.47;5085337;28;20460;-74
2021/03/24 03:09:21;;;;;;;26.48;14.10;;;;;;;7.29;60.14;100658.75;5085514;28;20128;-73
2021/03/24 03:11:56;;;;;;;20.08;12.52;;;;;;;7.26;60.20;100656.31;5084910;28;20044;-72
2021/03/24 03:14:29;;;;;;;21.08;13.07;;;;;;;7.32;59.97;100663.03;5085621;28;20055;-75
2021/03/24 03:17:00;;;;;;;19.55;12.23;;;;;;;7.32;59.95;100661.25;5085165;28;20044;-73
2021/03/24 03:19:32;;;;;;;19.52;12.50;;;;;;;7.31;60.05;100661.31;5084852;28;20113;-73
2021/03/24 03:22:04;;;;;;;23.85;14.25;;;;;;;7.31;60.07;100659.56;5083394;28;20105;-74
2021/03/24 03:24:37;;;;;;;26.30;15.40;;;;;;;7.31;60.01;100664.81;5083866;28;20070;-74
2021/03/24 03:27:07;;;;;;;27.73;15.05;;;;;;;7.25;60.31;100663.31;5084247;28;20860;-72
2021/03/24 03:29:33;;;;;;;23.83;14.10;;;;;;;7.17;60.52;100662.91;5085359;28;20044;-71
2021/03/24 03:32:03;;;;;;;22.00;15.27;;;;;;;7.17;60.53;100659.44;5084044;28;20048;-79
2021/03/24 03:34:31;;;;;;;22.83;12.45;;;;;;;7.12;60.77;100664.06;5085486;28;20040;-74
2021/03/24 03:36:59;;;;;;;20.42;12.88;;;;;;;7.15;60.69;100663.88;5085045;28;20079;-73
2021/03/24 03:39:29;;;;;;;21.52;13.07;;;;;;;7.21;60.53;100660.97;5084274;28;20052;-72
2021/03/24 03:41:59;;;;;;;24.92;14.10;;;;;;;7.20;60.46;100664.50;5085765;28;20109;-74
2021/03/24 03:44:28;;;;;;;22.42;12.80;;;;;;;7.19;60.49;100668.06;5085245;28;20052;-73
2021/03/24 03:46:58;;;;;;;20.27;12.13;;;;;;;7.21;60.46;100666.22;5084438;28;20498;-74
2021/03/24 03:49:25;;;;;;;19.75;13.75;;;;;;;7.15;60.67;100663.88;5085375;28;20518;-73
2021/03/24 03:52:02;;;;;;;25.35;13.48;;;;;;;7.13;60.73;100660.50;5083278;28;20044;-73
2021/03/24 03:54:34;;;;;;;23.35;15.48;;;;;;;7.01;61.31;100657.56;5067976;28;20606;-73
2021/03/24 03:57:04;;;;;;;24.05;14.55;;;;;;;7.07;61.02;100662.50;5084497;28;20048;-74
2021/03/24 03:59:38;;;;;;;26.17;15.57;;;;;;;7.05;61.02;100666.97;5084353;28;20059;-73
2021/03/24 04:02:14;;;;;;;20.80;15.35;;;;;;;7.02;61.00;100656.66;5083926;28;20052;-74
2021/03/24 04:04:49;;;;;;;23.00;14.68;;;;;;;7.05;61.10;100661.72;5084619;28;20063;-73
2021/03/24 04:07:21;;;;;;;21.60;12.55;;;;;;;7.02;61.15;100654.03;5084173;28;20488;-73
2021/03/24 04:09:48;;;;;;;25.92;14.05;;;;;;;6.98;61.29;100659.50;5085025;28;20455;-73
2021/03/24 04:12:17;;;;;;;22.05;13.48;;;;;;;6.95;61.17;100671.03;5084274;28;20557;-72
2021/03/24 04:14:45;;;;;;;19.90;13.68;;;;;;;6.96;61.21;100670.09;5084457;28;20059;-72
2021/03/24 04:17:14;;;;;;;20.10;13.20;;;;;;;6.98;61.18;100662.13;5084638;28;20048;-72
2021/03/24 04:19:45;;;;;;;21.50;13.20;;;;;;;7.01;61.14;100667.25;5085122;28;20055;-73
2021/03/24 04:22:15;;;;;;;22.98;15.00;;;;;;;7.10;61.06;100664.13;5082380;28;20044;-73
2021/03/24 04:24:45;;;;;;;29.98;14.30;;;;;;;7.03;61.15;100673.25;5084721;28;20096;-73
2021/03/24 04:27:14;;;;;;;25.85;14.27;;;;;;;7.06;60.99;100668.69;5085633;28;20048;-74
2021/03/24 04:29:44;;;;;;;24.25;15.10;;;;;;;7.11;61.05;100667.59;5085445;28;20134;-71
2021/03/24 04:32:11;;;;;;;24.20;13.43;;;;;;;7.12;60.88;100671.94;5085195;28;20055;-72
2021/03/24 04:34:39;;;;;;;23.30;14.27;;;;;;;7.08;60.97;100677.34;5084353;28;20048;-73
2021/03/24 04:37:15;;;;;;;22.90;16.00;;;;;;;7.25;60.61;100673.00;5084751;28;20044;-73
2021/03/24 04:39:45;;;;;;;30.98;15.00;;;;;;;7.15;60.76;100683.16;5084511;28;20056;-73
2021/03/24 04:42:17;;;;;;;29.70;17.35;;;;;;;7.18;60.71;100682.13;5084767;28;20044;-73
2021/03/24 04:44:47;;;;;;;43.35;20.90;;;;;;;7.14;60.74;100689.31;5084308;28;20121;-73
2021/03/24 04:47:19;;;;;;;27.85;16.48;;;;;;;7.08;61.07;100692.25;5085318;28;20044;-73
2021/03/24 04:49:50;;;;;;;47.63;21.77;;;;;;;7.14;60.70;100691.94;5085169;28;20050;-73
2021/03/24 04:52:19;;;;;;;37.53;19.35;;;;;;;7.15;60.85;100693.66;5082444;28;20048;-73
2021/03/24 04:54:47;;;;;;;34.38;20.05;;;;;;;7.14;60.80;100689.31;5085285;28;20048;-72
2021/03/24 04:57:17;;;;;;;54.70;24.20;;;;;;;7.16;60.74;100699.75;5084436;28;20055;-73
2021/03/24 04:59:46;;;;;;;33.97;19.15;;;;;;;7.15;60.80;100692.78;5085096;28;20052;-72
2021/03/24 05:02:15;;;;;;;32.15;20.60;;;;;;;7.13;60.93;100697.25;5083804;28;20055;-73
2021/03/24 05:04:46;;;;;;;27.33;16.77;;;;;;;7.18;60.40;100692.63;5084301;28;20044;-73
2021/03/24 05:07:21;;;;;;;37.25;19.95;;;;;;;7.21;60.71;100695.94;5084486;28;20048;-74
2021/03/24 05:09:48;;;;;;;44.70;21.30;;;;;;;7.20;60.55;100693.41;5083194;28;20055;-74
2021/03/24 05:12:19;;;;;;;60.25;28.98;;;;;;;7.29;60.33;100687.66;5082886;28;20485;-73
2021/03/24 05:14:52;;;;;;;33.88;22.13;;;;;;;7.29;60.46;100698.19;5084899;28;20156;-73
2021/03/24 05:17:22;;;;;;;75.40;32.05;;;;;;;7.26;60.44;100696.56;5083088;28;20108;-73
2021/03/24 05:19:49;;;;;;;48.95;25.90;;;;;;;7.27;60.43;100695.66;5083430;28;20052;-74
2021/03/24 05:22:26;;;;;;;28.95;17.65;;;;;;;7.28;60.57;100691.25;5081978;28;20047;-73
2021/03/24 05:25:02;;;;;;;44.40;23.20;;;;;;;7.25;60.50;100694.00;5082671;28;20055;-74
2021/03/24 05:27:33;;;;;;;40.13;22.65;;;;;;;7.30;60.28;100697.25;5082303;28;20048;-73
2021/03/24 05:30:07;;;;;;;26.45;17.92;;;;;;;7.27;60.30;100693.03;5083638;28;20044;-75
2021/03/24 05:32:39;;;;;;;40.42;21.75;;;;;;;7.33;60.18;100702.38;5081797;28;20056;-75
2021/03/24 05:35:24;;;;;;;38.90;22.85;;;;;;;7.51;59.74;100699.69;5083116;28;20048;-73
2021/03/24 05:37:52;;;;;;;51.42;26.25;;;;;;;7.44;59.79;100709.69;5082537;28;20060;-74
2021/03/24 05:40:42;;;;;;;34.70;20.70;;;;;;;7.27;60.45;100714.03;5083111;28;20044;-75
2021/03/24 05:43:24;;;;;;;48.88;27.02;;;;;;;7.22;60.60;100710.81;5084107;28;20044;-78
2021/03/24 05:45:59;;;;;;;32.65;22.15;;;;;;;7.21;60.45;100722.22;5082554;28;20055;-79
2021/03/24 05:48:47;;;;;;;33.38;19.67;;;;;;;7.30;60.40;100720.91;5084703;28;20410;-77
2021/03/24 05:51:26;;;;;;;39.63;20.98;;;;;;;7.32;60.28;100719.03;5082581;28;20414;-76
2021/03/24 05:54:31;;;;;;;44.88;26.75;;;;;;;7.35;60.39;100720.69;5082310;28;20055;-76
2021/03/24 05:57:19;;;;;;;38.67;21.80;;;;;;;7.36;60.14;100723.22;4999950;28;20061;-72
2021/03/24 05:59:57;;;;;;;37.33;20.77;;;;;;;7.35;60.33;100726.78;4995514;28;20084;-76
2021/03/24 06:02:37;;;;;;;35.30;22.88;;;;;;;7.29;60.76;100729.69;4999252;28;20145;-76
2021/03/24 06:05:08;;;;;;;42.75;26.33;;;;;;;7.26;60.80;100727.25;4999225;28;20490;-77
2021/03/24 06:08:00;;;;;;;40.65;23.33;;;;;;;7.30;60.95;100728.78;5000669;28;20766;-80
2021/03/24 06:10:44;;;;;;;50.05;26.67;;;;;;;7.20;61.61;100724.91;5008044;28;20046;-76
2021/03/24 06:13:44;;;;;;;36.10;22.30;;;;;;;7.19;62.01;100728.50;5001879;28;20745;-76
2021/03/24 06:16:52;;;;;;;36.08;22.75;;;;;;;7.18;62.33;100729.41;4997651;28;20050;-74
2021/03/24 06:19:31;;;;;;;41.85;23.48;;;;;;;7.21;62.37;100729.25;4997906;28;20057;-71
2021/03/24 06:22:05;;;;;;;44.28;22.63;;;;;;;7.16;62.66;100734.72;4995689;28;20050;-72
2021/03/24 06:24:45;;;;;;;36.72;24.17;;;;;;;7.24;62.59;100729.13;5001604;28;20092;-75
2021/03/24 06:27:27;;;;;;;38.95;22.58;;;;;;;7.23;62.49;100723.00;5002415;28;20050;-76
2021/03/24 06:30:07;;;;;;;34.08;21.15;;;;;;;7.16;62.69;100736.53;4998687;28;20050;-73
2021/03/24 06:32:56;;;;;;;33.30;23.73;;;;;;;7.14;62.87;100738.38;4999755;28;20057;-73
2021/03/24 06:35:46;;;;;;;37.25;19.02;;;;;;;7.26;62.57;100732.50;5082542;28;20046;-71
2021/03/24 06:38:29;;;;;;;37.85;23.17;;;;;;;7.35;62.32;100739.91;5079838;28;20044;-73
2021/03/24 06:41:13;;;;;;;41.40;21.77;;;;;;;7.38;62.18;100739.78;5079674;28;20048;-72
2021/03/24 06:44:01;;;;;;;34.22;23.35;;;;;;;7.39;62.24;100743.25;5079420;28;20047;-72
2021/03/24 06:46:38;;;;;;;40.17;24.00;;;;;;;7.49;62.04;100748.84;5074854;28;20040;-75
2021/03/24 06:49:19;;;;;;;46.17;28.30;;;;;;;7.58;61.95;100749.25;5074375;28;20651;-76
2021/03/24 06:52:23;;;;;;;30.27;18.38;;;;;;;7.71;61.79;100757.34;5060136;28;20059;-74
2021/03/24 06:55:24;;;;;;;38.95;26.48;;;;;;;7.78;61.49;100755.25;5064301;28;20046;-73
2021/03/24 06:58:41;;;;;;;36.58;21.13;;;;;;;7.97;61.01;100755.94;5063076;28;20044;-76
2021/03/24 07:01:40;;;;;;;33.70;22.90;;;;;;;7.98;60.91;100759.44;5000694;28;20053;-75
2021/03/24 07:04:47;;;;;;;39.70;24.40;;;;;;;7.91;61.01;100765.97;5005213;28;20076;-80
2021/03/24 07:07:35;;;;;;;38.78;23.05;;;;;;;8.02;60.72;100763.59;4936194;28;20036;-80
2021/03/24 07:10:12;;;;;;;30.75;22.25;;;;;;;8.15;60.46;100766.41;4938363;28;20039;-77
2021/03/24 07:12:59;;;;;;;36.10;24.13;;;;;;;8.21;60.18;100768.69;4938770;28;20090;-78
2021/03/24 07:15:34;;;;;;;37.05;21.73;;;;;;;8.22;60.20;100771.25;4932744;29;20047;-75
2021/03/24 07:18:21;;;;;;;;;;;;;;;8.47;59.44;100777.84;4934303;29;20050;-75
2021/03/24 07:21:06;;;;;;;24.95;15.98;;;;;;;8.46;59.35;100773.50;4897341;29;19927;-76
2021/03/24 07:23:48;;;;;;;29.50;20.30;;;;;;;8.40;58.95;100779.09;4900460;29;20112;-78
2021/03/24 07:26:25;;;;;;;26.15;17.25;;;;;;;8.35;59.17;100775.84;4899565;29;20156;-77
2021/03/24 07:29:06;;;;;;;36.03;20.52;;;;;;;8.42;58.84;100787.78;4899252;29;20052;-77
2021/03/24 07:32:08;;;;;;;29.00;18.45;;;;;;;8.46;58.81;100781.41;4924398;28;20050;-77
2021/03/24 07:34:58;;;;;;;34.13;22.85;;;;;;;8.45;58.55;100782.34;4898970;29;20662;-77
2021/03/24 07:37:52;;;;;;;25.30;16.05;;;;;;;8.44;58.79;100785.91;4900009;28;20130;-76
2021/03/24 07:40:51;;;;;;;29.30;18.23;;;;;;;8.44;58.33;100787.69;4900316;29;20719;-77
2021/03/24 07:43:37;;;;;;;31.10;17.60;;;;;;;8.51;58.00;100789.91;4924488;28;20038;-76
2021/03/24 07:46:14;;;;;;;;;;;;;;;8.77;57.35;100787.63;4962618;28;20053;-79
2021/03/24 07:48:53;;;;;;;30.10;19.48;;;;;;;8.70;57.41;100787.09;4961033;28;20066;-78
2021/03/24 07:51:31;;;;;;;29.38;18.38;;;;;;;8.63;57.18;100791.00;4960627;28;20046;-76
2021/03/24 07:54:06;;;;;;;37.25;18.80;;;;;;;8.70;57.23;100792.38;4961740;28;20090;-78
2021/03/24 07:56:40;;;;;;;30.92;18.65;;;;;;;8.83;57.03;100792.53;4960971;28;20043;-78
2021/03/24 07:59:20;;;;;;;32.60;19.58;;;;;;;8.99;56.81;100782.81;4977310;28;20046;-77
2021/03/24 08:01:58;;;;;;;34.33;20.88;;;;;;;9.12;56.35;100790.00;4976524;28;20046;-75
2021/03/24 08:04:40;;;;;;;25.27;16.23;;;;;;;9.04;56.42;100785.19;4974282;28;20058;-75
2021/03/24 08:07:18;;;;;;;30.75;18.05;;;;;;;9.12;56.14;100788.22;4960067;28;20050;-77
2021/03/24 08:09:56;;;;;;;30.60;17.70;;;;;;;9.24;55.52;100791.94;4975103;28;20093;-76
2021/03/24 08:12:53;;;;;;;23.88;16.15;;;;;;;9.25;55.61;100787.50;5043527;28;20045;-78
2021/03/24 08:15:59;;;;;;;22.65;16.33;;;;;;;9.37;55.26;100797.34;5056982;28;20055;-78
2021/03/24 08:18:39;;;;;;;31.80;17.77;;;;;;;9.45;54.92;100799.50;4971901;28;20046;-77
2021/03/24 08:21:14;;;;;;;32.85;17.48;;;;;;;9.55;54.89;100796.25;4972996;28;20054;-77
2021/03/24 08:24:14;;;;;;;31.67;18.83;;;;;;;9.80;54.47;100794.78;4975430;28;20066;-77
2021/03/24 08:26:48;;;;;;;28.10;15.00;;;;;;;10.01;53.87;100795.28;4974652;28;20056;-77
2021/03/24 08:29:26;;;;;;;28.92;17.65;;;;;;;10.10;53.44;100796.47;4974173;28;20046;-77
2021/03/24 08:32:24;;;;;;;24.95;16.20;;;;;;;10.16;53.25;100798.75;4972536;28;20050;-77
2021/03/24 08:35:08;;;;;;;27.85;17.67;;;;;;;10.18;52.86;100798.66;4973245;28;20058;-77
2021/03/24 08:38:14;;;;;;;27.25;16.50;;;;;;;10.24;52.82;100787.69;4973570;28;20046;-78
2021/03/24 08:41:03;;;;;;;25.58;16.55;;;;;;;10.07;52.78;100797.53;4973514;28;20093;-78
2021/03/24 08:43:43;;;;;;;30.65;17.52;;;;;;;9.95;53.09;100798.25;4971449;28;20623;-79
2021/03/24 08:46:15;;;;;;;33.53;20.10;;;;;;;9.94;53.03;100791.31;4970812;28;20058;-78
2021/03/24 08:48:47;;;;;;;25.67;16.80;;;;;;;9.90;53.22;100793.28;4973431;28;20141;-78
2021/03/24 08:51:22;;;;;;;25.17;16.30;;;;;;;9.91;53.20;100791.50;4971216;28;20042;-77
2021/03/24 08:54:08;;;;;;;29.90;18.48;;;;;;;9.88;53.36;100791.66;4974086;28;20050;-77
2021/03/24 08:56:47;;;;;;;35.78;19.60;;;;;;;9.76;53.80;100783.56;5054553;28;20519;-77
2021/03/24 08:59:25;;;;;;;29.83;19.42;;;;;;;9.72;53.80;100787.34;5054967;28;20483;-77
2021/03/24 09:02:21;;;;;;;24.60;15.95;;;;;;;9.83;53.30;100791.97;5055853;28;20044;-76
2021/03/24 09:05:14;;;;;;;22.77;18.38;;;;;;;9.70;53.01;100791.84;5053973;28;20162;-76
2021/03/24 09:08:02;;;;;;;23.17;15.57;;;;;;;9.74;52.74;100784.56;5054129;28;20408;-77
2021/03/24 09:10:42;;;;;;;28.77;19.02;;;;;;;9.72;52.46;100787.34;5052921;28;20040;-79
2021/03/24 09:13:21;;;;;;;30.58;20.00;;;;;;;9.77;52.48;100792.31;5055511;28;20205;-76
2021/03/24 09:16:11;;;;;;;22.55;14.57;;;;;;;9.74;51.86;100782.81;5053689;28;20036;-76
2021/03/24 09:18:44;;;;;;;24.58;15.15;;;;;;;9.69;51.89;100787.50;5052820;28;20049;-77
2021/03/24 09:21:16;;;;;;;22.45;13.27;;;;;;;9.92;51.63;100787.88;5052981;28;20132;-78
2021/03/24 09:24:25;;;;;;;17.65;11.90;;;;;;;9.98;51.09;100784.88;5055037;28;20114;-78
2021/03/24 09:27:32;;;;;;;20.67;13.77;;;;;;;10.13;50.89;100785.72;5053990;28;20048;-78
2021/03/24 09:30:29;;;;;;;18.50;11.82;;;;;;;10.19;50.62;100781.84;5055059;28;20055;-78
2021/03/24 09:33:12;;;;;;;20.75;13.10;;;;;;;10.23;50.59;100780.75;5053552;28;20045;-77
2021/03/24 09:35:47;;;;;;;20.65;15.43;;;;;;;10.30;50.46;100777.59;5054979;28;20044;-78
2021/03/24 09:38:19;;;;;;;23.73;13.45;;;;;;;10.47;50.11;100778.38;5053853;28;20048;-76
2021/03/24 09:40:48;;;;;;;20.80;15.15;;;;;;;10.30;49.76;100782.06;5051131;28;20056;-77
2021/03/24 09:43:21;;;;;;;15.55;11.65;;;;;;;10.25;49.63;100773.56;5053161;28;20070;-78
2021/03/24 09:45:57;;;;;;;18.88;12.45;;;;;;;10.41;49.46;100784.06;5052940;28;20127;-77
2021/03/24 09:48:25;;;;;;;11.23;8.02;;;;;;;10.41;48.76;100774.31;5052643;28;20044;-78
2021/03/24 09:51:04;;;;;;;12.98;8.05;;;;;;;10.35;48.50;100779.13;5051731;28;20141;-77
2021/03/24 09:53:32;;;;;;;9.27;6.20;;;;;;;10.46;48.08;100780.16;5053321;28;20555;-78
2021/03/24 09:56:04;;;;;;;12.43;7.93;;;;;;;10.64;47.62;100777.28;5054522;28;20048;-77
2021/03/24 09:58:55;;;;;;;14.23;8.52;;;;;;;10.62;47.67;100774.72;5055849;28;20048;-78
2021/03/24 10:01:38;;;;;;;12.93;7.65;;;;;;;10.76;47.63;100773.84;5058081;28;20666;-78
2021/03/24 10:04:31;;;;;;;16.85;10.20;;;;;;;10.78;47.61;100771.09;5058758;28;20142;-78
2021/03/24 10:07:08;;;;;;;12.68;7.85;;;;;;;11.01;47.46;100767.78;5059242;28;20049;-78
2021/03/24 10:09:41;;;;;;;15.30;7.45;;;;;;;11.31;46.66;100766.72;5059178;28;20541;-78
2021/03/24 10:12:30;;;;;;;13.25;9.13;;;;;;;11.39;45.83;100767.03;5056569;28;20863;-77
2021/03/24 10:15:11;;;;;;;16.17;8.35;;;;;;;11.44;45.68;100761.44;5056804;28;20098;-78
2021/03/24 10:17:42;;;;;;;13.45;9.88;;;;;;;11.55;45.43;100764.19;5058769;28;20056;-77
2021/03/24 10:20:18;;;;;;;12.20;6.22;;;;;;;11.87;45.29;100758.47;5058286;28;20052;-77
2021/03/24 10:22:49;;;;;;;13.38;8.52;;;;;;;12.19;44.56;100752.72;5056147;28;20048;-77
2021/03/24 10:25:24;;;;;;;14.43;8.68;;;;;;;11.89;44.51;100750.44;5057798;28;20492;-80
2021/03/24 10:27:53;;;;;;;15.93;9.60;;;;;;;11.47;44.61;100754.13;5057679;28;20117;-79
2021/03/24 10:30:36;;;;;;;15.80;7.90;;;;;;;11.29;44.90;100761.53;5057298;28;20101;-78
2021/03/24 10:33:11;;;;;;;12.88;8.88;;;;;;;11.26;45.36;100751.16;5058132;28;20073;-79
2021/03/24 10:35:42;;;;;;;15.70;10.47;;;;;;;11.29;45.44;100752.75;5059293;28;20040;-78
2021/03/24 10:38:22;;;;;;;15.38;10.65;;;;;;;11.26;45.63;100750.31;5057533;28;20314;-76
2021/03/24 10:41:08;;;;;;;17.17;10.65;;;;;;;11.42;45.59;100745.66;5057442;28;20078;-80
2021/03/24 10:43:41;;;;;;;23.25;12.18;;;;;;;11.47;45.33;100745.38;5057095;28;20579;-78
2021/03/24 10:46:13;;;;;;;19.23;10.30;;;;;;;11.46;45.27;100749.78;5058659;28;20101;-78
2021/03/24 10:48:47;;;;;;;13.65;9.75;;;;;;;11.59;45.41;100749.78;5059980;28;20440;-78
2021/03/24 10:51:21;;;;;;;17.50;11.85;;;;;;;11.70;44.78;100745.56;5057878;28;20060;-79
2021/03/24 10:53:48;;;;;;;19.95;11.43;;;;;;;11.60;44.66;100740.91;5059118;28;20049;-78
2021/03/24 10:56:27;;;;;;;23.73;14.18;;;;;;;11.65;44.97;100736.16;5058915;28;20056;-78
2021/03/24 10:59:00;;;;;;;19.50;12.35;;;;;;;11.75;44.46;100735.50;5059268;28;20519;-78
2021/03/24 11:01:38;;;;;;;16.45;9.77;;;;;;;11.86;44.33;100735.59;5059437;28;20493;-78
2021/03/24 11:04:16;;;;;;;14.52;10.30;;;;;;;11.95;44.09;100740.28;5058257;28;20098;-78
2021/03/24 11:06:52;;;;;;;15.60;10.32;;;;;;;11.96;44.16;100738.50;5057562;28;20118;-80
2021/03/24 11:09:23;;;;;;;16.38;10.40;;;;;;;11.95;44.34;100729.69;5057035;28;20134;-79
2021/03/24 11:11:54;;;;;;;13.95;9.65;;;;;;;12.10;44.17;100729.56;5056793;28;20515;-78
2021/03/24 11:14:22;;;;;;;20.38;11.80;;;;;;;12.15;43.89;100728.25;5058095;28;20036;-79
2021/03/24 11:16:55;;;;;;;19.13;14.10;;;;;;;11.77;44.30;100721.19;5056930;28;20071;-76
2021/03/24 11:19:28;;;;;;;17.10;10.93;;;;;;;11.51;44.29;100728.31;5062622;28;20036;-76
2021/03/24 11:22:22;;;;;;;20.35;13.27;;;;;;;11.48;44.40;100720.59;5065032;28;20121;-76
2021/03/24 11:24:54;;;;;;;17.70;11.90;;;;;;;11.42;44.20;100721.88;4956315;28;20748;-77
2021/03/24 11:27:29;;;;;;;19.52;13.13;;;;;;;11.44;44.27;100716.47;4955159;28;20659;-80
2021/03/24 11:30:03;;;;;;;15.98;12.18;;;;;;;11.32;44.46;100720.78;4956615;28;20135;-79
2021/03/24 11:32:40;;;;;;;16.42;12.32;;;;;;;11.52;44.31;100724.72;4954801;28;20047;-78
2021/03/24 11:35:18;;;;;;;15.40;12.18;;;;;;;11.54;44.02;100712.25;4953803;28;20050;-76
2021/03/24 11:37:52;;;;;;;18.42;13.20;;;;;;;11.64;44.02;100723.03;4955689;28;20615;-77
2021/03/24 11:40:26;;;;;;;19.63;11.65;;;;;;;11.69;44.17;100720.91;4955184;28;20047;-77
2021/03/24 11:42:59;;;;;;;15.25;10.38;;;;;;;11.54;44.15;100716.66;4954262;28;20051;-78
2021/03/24 11:45:29;;;;;;;16.30;11.68;;;;;;;11.32;44.40;100712.03;4954774;28;20734;-78
2021/03/24 11:48:20;;;;;;;19.23;10.65;;;;;;;11.45;44.57;100704.91;4953492;28;20764;-78
2021/03/24 11:50:59;;;;;;;18.35;11.35;;;;;;;11.62;44.17;100709.06;4954178;28;20057;-77
2021/03/24 11:53:41;;;;;;;17.80;11.55;;;;;;;11.67;43.93;100707.78;4956281;28;20057;-77
2021/03/24 11:56:18;;;;;;;16.50;9.77;;;;;;;11.77;43.82;100707.97;4954610;28;20058;-78